Time;durP1;ratioP1;P1;durP2;ratioP2;P2;SDS_P1;SDS_P2;PMS_P1;PMS_P2;Temp;Humidity;BMP_temperature;BMP_pressure;BME280_temperature;BME280_humidity;BME280_pressure;Samples;Min_cycle;Max_cycle;Signal;HPM_P1;HPM_P2
2023/05/22 00:01:59;;;;;;;32.97;26.10;;;;;;;15.43;100.00;101357.28;4992683;28;20030;-59
2023/05/22 00:04:28;;;;;;;34.33;26.30;;;;;;;15.53;100.00;101350.56;4992615;28;20108;-59
2023/05/22 00:06:54;;;;;;;34.22;25.67;;;;;;;15.65;100.00;101355.47;4992691;28;20465;-59
2023/05/22 00:09:19;;;;;;;32.45;26.58;;;;;;;15.60;100.00;101350.88;4992573;28;20058;-59
2023/05/22 00:11:45;;;;;;;32.53;25.33;;;;;;;15.59;100.00;101356.78;4992631;28;20037;-59
2023/05/22 00:14:12;;;;;;;33.65;27.13;;;;;;;15.54;100.00;101354.97;4992641;28;20046;-59
2023/05/22 00:16:37;;;;;;;33.38;26.77;;;;;;;15.52;100.00;101362.88;4992750;28;20034;-59
2023/05/22 00:19:03;;;;;;;33.10;26.55;;;;;;;15.45;100.00;101359.72;4992608;28;20042;-59
2023/05/22 00:21:33;;;;;;;32.78;26.95;;;;;;;15.51;100.00;101361.22;4992727;28;20066;-59
2023/05/22 00:23:59;;;;;;;31.80;25.75;;;;;;;15.44;100.00;101363.69;4992648;28;20030;-59
2023/05/22 00:26:25;;;;;;;32.85;26.40;;;;;;;15.44;100.00;101360.91;4992161;28;20034;-60
2023/05/22 00:28:50;;;;;;;31.85;26.42;;;;;;;15.39;100.00;101358.25;4992416;28;20406;-60
2023/05/22 00:31:15;;;;;;;33.88;27.05;;;;;;;15.38;100.00;101363.03;4992655;28;20037;-60
2023/05/22 00:33:41;;;;;;;35.78;27.23;;;;;;;15.31;100.00;101354.31;4992473;28;20505;-59
2023/05/22 00:36:06;;;;;;;36.28;28.20;;;;;;;15.34;100.00;101348.09;4992463;28;20034;-59
2023/05/22 00:38:36;;;;;;;33.40;27.08;;;;;;;15.29;100.00;101343.50;4992545;28;20100;-59
2023/05/22 00:41:03;;;;;;;34.13;27.70;;;;;;;15.24;100.00;101349.22;4992333;28;20026;-58
2023/05/22 00:43:28;;;;;;;32.42;26.40;;;;;;;15.27;100.00;101353.31;4992321;28;20042;-59
2023/05/22 00:45:54;;;;;;;34.78;28.80;;;;;;;15.19;100.00;101349.38;4992287;28;20354;-58
2023/05/22 00:48:21;;;;;;;34.30;28.17;;;;;;;15.14;100.00;101349.53;4992367;28;20475;-59
2023/05/22 00:50:48;;;;;;;33.92;28.88;;;;;;;15.12;100.00;101349.84;4991019;28;20586;-59
2023/05/22 00:53:13;;;;;;;35.97;29.33;;;;;;;15.10;100.00;101349.38;4999560;28;20113;-59
2023/05/22 00:55:39;;;;;;;31.20;27.10;;;;;;;15.10;100.00;101354.94;5011876;28;20113;-59
2023/05/22 00:58:06;;;;;;;33.58;27.98;;;;;;;15.12;100.00;101349.03;5012195;28;20104;-59
2023/05/22 01:00:35;;;;;;;33.10;28.40;;;;;;;15.19;100.00;101349.38;5011857;28;20026;-59
2023/05/22 01:03:02;;;;;;;33.88;27.63;;;;;;;15.13;100.00;101340.34;5012103;28;20121;-59
2023/05/22 01:05:27;;;;;;;34.03;29.05;;;;;;;15.06;100.00;101345.59;5011976;28;20022;-59
2023/05/22 01:07:52;;;;;;;35.78;29.20;;;;;;;15.05;100.00;101345.91;5011668;28;20585;-59
2023/05/22 01:10:18;;;;;;;35.47;28.90;;;;;;;15.06;100.00;101336.41;5011624;28;20065;-59
2023/05/22 01:13:03;;;;;;;36.17;28.55;;;;;;;15.15;100.00;101334.47;5011751;28;20417;-60
2023/05/22 01:15:45;;;;;;;33.45;27.92;;;;;;;15.16;100.00;101333.28;5011603;28;20032;-60
2023/05/22 01:18:19;;;;;;;36.80;28.02;;;;;;;15.17;100.00;101323.78;5011798;28;20034;-60
2023/05/22 01:20:50;;;;;;;34.80;28.55;;;;;;;15.20;100.00;101325.13;5011546;28;20049;-60
2023/05/22 01:23:17;;;;;;;35.47;28.25;;;;;;;15.14;100.00;101324.47;5011601;28;20029;-59
2023/05/22 01:25:54;;;;;;;34.92;28.50;;;;;;;15.15;100.00;101328.06;5011412;28;20096;-59
2023/05/22 01:28:38;;;;;;;35.67;28.15;;;;;;;15.15;100.00;101328.06;5011527;28;20133;-59
2023/05/22 01:31:07;;;;;;;33.45;27.50;;;;;;;15.01;100.00;101329.03;5011303;28;20026;-59
2023/05/22 01:33:40;;;;;;;33.65;28.35;;;;;;;14.88;100.00;101329.97;5003901;28;20053;-59
2023/05/22 01:36:07;;;;;;;35.88;28.50;;;;;;;14.79;100.00;101332.72;4993471;28;20038;-59
2023/05/22 01:38:33;;;;;;;36.83;28.58;;;;;;;14.71;100.00;101331.56;4995785;28;20085;-59
2023/05/22 01:40:59;;;;;;;34.28;28.48;;;;;;;14.63;100.00;101338.72;4995570;28;20030;-59
2023/05/22 01:43:25;;;;;;;36.83;29.33;;;;;;;14.62;100.00;101336.25;4995341;28;20113;-59
2023/05/22 01:45:51;;;;;;;34.38;28.40;;;;;;;14.64;100.00;101332.00;4995319;28;20101;-59
2023/05/22 01:48:16;;;;;;;34.63;28.92;;;;;;;14.74;100.00;101330.09;4992610;28;20026;-59
2023/05/22 01:50:42;;;;;;;36.78;30.65;;;;;;;14.61;100.00;101329.03;4995489;28;20034;-59
2023/05/22 01:53:18;;;;;;;35.38;29.15;;;;;;;14.70;100.00;101329.09;4998451;28;20057;-59
2023/05/22 01:56:08;;;;;;;38.13;29.08;;;;;;;14.72;100.00;101322.06;5014999;28;20030;-59
2023/05/22 01:59:00;;;;;;;36.97;29.67;;;;;;;14.63;100.00;101326.75;5014429;28;20040;-59
2023/05/22 02:01:27;;;;;;;38.00;30.05;;;;;;;14.53;100.00;101327.06;5014589;28;20030;-59
2023/05/22 02:03:55;;;;;;;38.47;29.80;;;;;;;14.50;100.00;101322.91;5005802;28;20049;-59
2023/05/22 02:06:23;;;;;;;35.38;31.33;;;;;;;14.42;100.00;101321.75;4994994;28;20041;-59
2023/05/22 02:08:51;;;;;;;37.22;30.70;;;;;;;14.38;100.00;101325.50;4994949;28;20035;-59
2023/05/22 02:11:18;;;;;;;38.78;30.33;;;;;;;14.43;100.00;101317.00;4995115;28;20037;-59
2023/05/22 02:13:44;;;;;;;35.45;29.77;;;;;;;14.40;100.00;101326.81;4994888;28;20080;-59
2023/05/22 02:16:10;;;;;;;36.78;31.08;;;;;;;14.38;100.00;101322.72;4994756;28;20488;-59
2023/05/22 02:18:36;;;;;;;37.15;30.75;;;;;;;14.34;100.00;101317.78;4994794;28;20034;-59
2023/05/22 02:21:03;;;;;;;37.55;30.67;;;;;;;14.30;100.00;101316.81;4994701;28;20360;-59
2023/05/22 02:23:28;;;;;;;37.30;31.20;;;;;;;14.21;100.00;101321.50;4998829;28;20115;-59
2023/05/22 02:25:54;;;;;;;35.97;30.42;;;;;;;14.29;100.00;101320.72;5014333;28;20108;-59
2023/05/22 02:28:19;;;;;;;40.17;32.25;;;;;;;14.29;100.00;101317.09;5010138;28;20038;-59
2023/05/22 02:30:45;;;;;;;38.15;32.00;;;;;;;14.23;100.00;101318.41;4994494;28;20041;-59
2023/05/22 02:33:10;;;;;;;40.33;32.08;;;;;;;14.18;100.00;101314.59;4994303;28;20022;-59
2023/05/22 02:35:35;;;;;;;39.30;33.03;;;;;;;14.15;100.00;101315.25;4994028;28;20085;-59
2023/05/22 02:38:01;;;;;;;38.47;32.90;;;;;;;14.04;100.00;101314.69;4994248;28;20442;-59
2023/05/22 02:40:26;;;;;;;39.78;33.45;;;;;;;14.06;100.00;101311.59;4994362;28;20418;-59
2023/05/22 02:42:52;;;;;;;41.25;32.53;;;;;;;14.03;100.00;101312.22;4989826;28;20571;-59
2023/05/22 02:45:18;;;;;;;39.15;32.92;;;;;;;14.00;100.00;101307.28;4993378;28;20367;-60
2023/05/22 02:47:43;;;;;;;42.50;34.38;;;;;;;13.95;100.00;101304.66;4992730;28;20529;-60
2023/05/22 02:50:08;;;;;;;40.20;33.92;;;;;;;13.90;100.00;101302.84;4993867;28;20026;-61
2023/05/22 02:52:34;;;;;;;42.60;35.50;;;;;;;13.88;100.00;101299.53;4996865;28;20030;-59
2023/05/22 02:54:59;;;;;;;37.45;33.22;;;;;;;13.89;100.00;101299.22;5013520;28;20128;-60
2023/05/22 02:57:25;;;;;;;39.55;33.13;;;;;;;14.00;100.00;101301.72;5013559;28;20057;-60
2023/05/22 02:59:51;;;;;;;39.60;32.75;;;;;;;14.06;100.00;101297.69;5013359;28;20037;-59
2023/05/22 03:02:17;;;;;;;40.40;34.40;;;;;;;14.00;100.00;101296.16;5013279;28;20033;-59
2023/05/22 03:04:42;;;;;;;39.22;33.83;;;;;;;13.93;100.00;101293.88;5012917;28;20034;-59
2023/05/22 03:07:08;;;;;;;40.60;33.45;;;;;;;13.92;100.00;101299.72;5013024;28;20034;-59
2023/05/22 03:09:33;;;;;;;40.97;34.80;;;;;;;13.80;100.00;101295.56;5012154;28;20470;-59
2023/05/22 03:11:58;;;;;;;42.35;35.50;;;;;;;13.76;100.00;101291.78;5012258;28;20049;-59
2023/05/22 03:14:24;;;;;;;40.83;35.88;;;;;;;13.76;100.00;101293.72;5012171;28;20473;-59
2023/05/22 03:16:49;;;;;;;41.67;34.42;;;;;;;13.82;100.00;101290.50;5012423;28;20034;-59
2023/05/22 03:19:15;;;;;;;40.17;34.40;;;;;;;13.85;100.00;101291.81;5011999;28;20053;-59
2023/05/22 03:21:44;;;;;;;43.03;34.33;;;;;;;13.91;100.00;101286.94;5011904;28;20482;-60
2023/05/22 03:24:11;;;;;;;40.75;34.58;;;;;;;13.97;100.00;101291.25;5012928;28;20076;-58
2023/05/22 03:26:37;;;;;;;42.03;34.38;;;;;;;13.97;100.00;101288.47;5011910;28;20028;-60
2023/05/22 03:29:02;;;;;;;41.35;35.25;;;;;;;13.84;100.00;101296.56;5011924;28;20037;-58
2023/05/22 03:31:30;;;;;;;43.50;36.65;;;;;;;13.75;100.00;101292.09;5004710;28;20078;-59
2023/05/22 03:33:55;;;;;;;40.65;35.78;;;;;;;13.77;100.00;101282.31;4992039;28;20046;-59
2023/05/22 03:36:21;;;;;;;41.20;35.80;;;;;;;13.85;100.00;101281.53;4992621;28;20053;-59
2023/05/22 03:38:47;;;;;;;42.42;34.50;;;;;;;13.91;100.00;101281.38;4986540;28;20018;-60
2023/05/22 03:41:12;;;;;;;40.80;34.95;;;;;;;13.96;100.00;101282.06;4992707;28;20045;-59
2023/05/22 03:43:37;;;;;;;41.40;35.63;;;;;;;13.98;100.00;101285.38;4992256;28;20451;-59
2023/05/22 03:46:03;;;;;;;43.65;35.67;;;;;;;13.97;100.00;101285.69;4991994;28;20030;-57
2023/05/22 03:48:28;;;;;;;43.33;36.13;;;;;;;13.97;100.00;101283.72;4992141;28;20048;-58
2023/05/22 03:50:53;;;;;;;44.40;34.67;;;;;;;14.01;100.00;101286.69;4992617;28;20336;-57
2023/05/22 03:53:19;;;;;;;42.45;36.20;;;;;;;13.99;100.00;101295.38;4992474;28;20078;-59
2023/05/22 03:55:45;;;;;;;42.97;35.85;;;;;;;13.88;100.00;101285.63;4992673;28;20027;-59
2023/05/22 03:58:10;;;;;;;40.88;35.38;;;;;;;13.89;100.00;101278.94;5012036;28;20112;-59
2023/05/22 04:00:36;;;;;;;41.75;35.60;;;;;;;13.90;100.00;101280.59;5012148;28;20469;-58
2023/05/22 04:03:02;;;;;;;41.95;36.65;;;;;;;13.90;100.00;101286.16;5011401;28;20057;-59
2023/05/22 04:05:28;;;;;;;42.75;36.00;;;;;;;13.94;100.00;101277.97;5011466;28;20492;-60
2023/05/22 04:07:54;;;;;;;43.67;35.45;;;;;;;13.93;100.00;101284.69;5011855;28;20029;-58
2023/05/22 04:10:22;;;;;;;44.72;37.58;;;;;;;13.87;100.00;101284.00;5010784;28;20052;-59
2023/05/22 04:12:47;;;;;;;47.85;38.47;;;;;;;13.73;100.00;101290.47;5012053;28;20038;-59
2023/05/22 04:15:12;;;;;;;44.22;38.58;;;;;;;13.59;100.00;101302.78;5011984;28;20038;-59
2023/05/22 04:17:39;;;;;;;45.03;37.65;;;;;;;13.50;100.00;101298.00;5011255;28;20030;-60
2023/05/22 04:20:05;;;;;;;43.88;38.28;;;;;;;13.59;100.00;101300.00;5002425;28;20038;-58
2023/05/22 04:22:32;;;;;;;43.08;37.50;;;;;;;13.65;100.00;101302.31;4992427;28;20034;-59
2023/05/22 04:24:57;;;;;;;43.78;35.45;;;;;;;13.75;100.00;101300.41;4992444;28;20033;-59
2023/05/22 04:27:23;;;;;;;42.28;35.20;;;;;;;13.80;100.00;101284.44;4992171;28;20038;-59
2023/05/22 04:29:52;;;;;;;41.72;36.05;;;;;;;13.78;100.00;101299.81;4992210;28;20386;-59
2023/05/22 04:32:20;;;;;;;41.80;35.53;;;;;;;13.88;100.00;101293.97;4991869;28;20018;-59
2023/05/22 04:34:48;;;;;;;42.30;35.85;;;;;;;13.88;100.00;101302.31;4985771;28;20082;-59
2023/05/22 04:37:17;;;;;;;45.15;36.33;;;;;;;13.94;100.00;101298.25;4992190;28;20042;-58
2023/05/22 04:39:43;;;;;;;43.40;36.95;;;;;;;13.95;100.00;101305.47;4992177;28;20066;-58
2023/05/22 04:42:08;;;;;;;41.05;36.33;;;;;;;13.98;100.00;101304.03;4992126;28;20049;-58
2023/05/22 04:44:33;;;;;;;41.97;35.35;;;;;;;14.02;100.00;101313.38;4991374;28;20530;-58
2023/05/22 04:47:00;;;;;;;43.08;36.75;;;;;;;13.98;100.00;101312.38;4990845;28;20478;-58
2023/05/22 04:49:27;;;;;;;42.35;36.88;;;;;;;13.91;100.00;101310.03;4990326;28;20412;-58
2023/05/22 04:51:53;;;;;;;45.00;37.85;;;;;;;13.84;100.00;101321.59;4991915;28;20445;-58
2023/05/22 04:54:19;;;;;;;43.53;38.00;;;;;;;13.83;100.00;101322.75;4992151;28;20026;-58
2023/05/22 04:56:44;;;;;;;43.47;37.67;;;;;;;13.86;100.00;101324.91;4989978;28;20038;-58
2023/05/22 04:59:10;;;;;;;45.58;38.65;;;;;;;13.93;100.00;101326.41;4991510;28;20026;-59
2023/05/22 05:01:36;;;;;;;47.72;38.75;;;;;;;13.87;100.00;101323.75;4991736;28;20042;-58
2023/05/22 05:04:02;;;;;;;49.42;38.28;;;;;;;13.91;100.00;101328.66;4991490;28;20437;-59
2023/05/22 05:06:27;;;;;;;46.67;38.78;;;;;;;13.94;100.00;101330.81;4992272;28;20038;-58
2023/05/22 05:08:53;;;;;;;45.45;37.63;;;;;;;13.97;100.00;101317.09;5001730;28;20036;-59
2023/05/22 05:11:20;;;;;;;45.95;38.47;;;;;;;13.98;100.00;101332.66;5003844;28;20027;-59
2023/05/22 05:13:45;;;;;;;44.60;38.35;;;;;;;13.99;100.00;101327.91;5003816;28;20069;-58
2023/05/22 05:16:10;;;;;;;46.22;37.78;;;;;;;14.05;100.00;101329.44;4997711;28;20030;-58
2023/05/22 05:18:36;;;;;;;49.80;38.97;;;;;;;13.99;100.00;101327.91;5002283;28;20037;-58
2023/05/22 05:21:01;;;;;;;45.17;37.20;;;;;;;14.04;100.00;101331.38;5014995;28;20512;-58
2023/05/22 05:23:26;;;;;;;49.08;37.97;;;;;;;14.01;100.00;101333.97;5014750;28;20030;-56
2023/05/22 05:25:52;;;;;;;47.00;37.83;;;;;;;14.01;100.00;101328.41;5013717;28;20022;-58
2023/05/22 05:28:17;;;;;;;44.20;37.50;;;;;;;14.06;100.00;101333.84;5015001;28;20111;-58
2023/05/22 05:30:42;;;;;;;46.67;37.65;;;;;;;13.99;100.00;101334.31;5015049;28;20034;-58
2023/05/22 05:33:08;;;;;;;45.38;37.08;;;;;;;13.81;100.00;101338.09;5014642;28;20022;-57
2023/05/22 05:35:33;;;;;;;44.28;37.17;;;;;;;13.75;100.00;101342.97;5013850;28;20128;-58
2023/05/22 05:37:58;;;;;;;48.33;37.30;;;;;;;13.73;100.00;101334.97;5008864;28;20027;-58
2023/05/22 05:40:23;;;;;;;47.90;38.78;;;;;;;13.78;100.00;101339.56;5006090;28;20030;-58
2023/05/22 05:42:49;;;;;;;51.05;39.47;;;;;;;13.67;100.00;101333.41;5003492;28;20022;-58
2023/05/22 05:45:15;;;;;;;52.05;42.28;;;;;;;13.45;100.00;101338.97;4999086;28;20192;-57
2023/05/22 05:47:40;;;;;;;49.92;39.72;;;;;;;13.47;100.00;101342.25;5004175;28;20060;-58
2023/05/22 05:50:06;;;;;;;50.30;37.92;;;;;;;13.62;100.00;101355.78;5002900;28;20070;-57
2023/05/22 05:52:32;;;;;;;52.22;40.00;;;;;;;13.70;100.00;101352.25;5003558;28;20161;-58
2023/05/22 05:54:59;;;;;;;50.53;41.35;;;;;;;13.69;100.00;101352.59;5004368;28;20026;-58
2023/05/22 05:57:25;;;;;;;56.45;40.70;;;;;;;13.58;100.00;101351.97;5005133;28;20037;-58
2023/05/22 05:59:51;;;;;;;53.33;40.75;;;;;;;13.62;100.00;101343.84;5003269;28;20050;-58
2023/05/22 06:02:16;;;;;;;52.58;40.78;;;;;;;13.74;100.00;101352.44;5004397;28;20052;-58
2023/05/22 06:04:41;;;;;;;53.97;39.78;;;;;;;13.93;100.00;101348.66;5004503;28;20034;-58
2023/05/22 06:07:06;;;;;;;56.70;41.45;;;;;;;14.01;100.00;101353.44;5002982;28;20041;-58
2023/05/22 06:09:32;;;;;;;57.25;41.28;;;;;;;14.10;100.00;101343.19;4994613;28;20389;-58
2023/05/22 06:11:57;;;;;;;51.63;39.17;;;;;;;14.24;100.00;101342.31;5010591;28;20092;-58
2023/05/22 06:14:22;;;;;;;53.08;40.25;;;;;;;14.20;100.00;101353.25;5013992;28;20040;-58
2023/05/22 06:16:47;;;;;;;56.15;39.75;;;;;;;14.23;100.00;101354.56;5013988;28;20129;-58
2023/05/22 06:19:13;;;;;;;55.88;41.00;;;;;;;14.20;100.00;101356.84;5013937;28;20041;-58
2023/05/22 06:21:38;;;;;;;51.65;38.33;;;;;;;14.29;100.00;101361.63;5013248;28;20172;-58
2023/05/22 06:24:04;;;;;;;48.15;37.38;;;;;;;14.48;100.00;101355.84;5013816;28;20040;-58
2023/05/22 06:26:30;;;;;;;49.00;36.00;;;;;;;14.60;100.00;101358.84;5013797;28;20029;-58
2023/05/22 06:28:55;;;;;;;49.13;38.40;;;;;;;14.64;100.00;101370.19;5013587;28;20030;-58
2023/05/22 06:31:21;;;;;;;46.78;36.97;;;;;;;14.62;100.00;101370.47;5013725;28;20053;-57
2023/05/22 06:33:47;;;;;;;45.25;36.50;;;;;;;14.66;100.00;101377.09;5013433;28;20030;-58
2023/05/22 06:36:12;;;;;;;47.00;36.33;;;;;;;14.64;100.00;101370.97;5013648;28;20022;-57
2023/05/22 06:38:38;;;;;;;47.83;36.85;;;;;;;14.68;100.00;101365.63;5013646;28;20433;-58
2023/05/22 06:41:04;;;;;;;48.28;38.10;;;;;;;14.83;100.00;101367.16;5012068;28;20040;-58
2023/05/22 06:43:29;;;;;;;46.60;36.70;;;;;;;14.99;100.00;101370.31;5011546;28;20041;-57
2023/05/22 06:45:55;;;;;;;46.75;36.38;;;;;;;15.05;100.00;101374.59;5011513;28;20026;-56
2023/05/22 06:48:20;;;;;;;43.90;36.13;;;;;;;15.07;100.00;101371.47;5011393;28;20104;-58
2023/05/22 06:50:46;;;;;;;46.60;34.88;;;;;;;15.40;100.00;101366.28;5011696;28;20482;-57
2023/05/22 06:53:11;;;;;;;46.47;35.42;;;;;;;15.60;100.00;101375.16;5011726;28;20108;-55
2023/05/22 06:55:36;;;;;;;47.28;37.35;;;;;;;15.59;100.00;101373.50;5012511;28;20025;-58
2023/05/22 06:58:02;;;;;;;41.70;33.80;;;;;;;15.84;100.00;101376.66;5013256;28;20072;-58
2023/05/22 07:00:27;;;;;;;41.90;34.40;;;;;;;16.04;100.00;101377.94;4992944;28;20041;-58
2023/05/22 07:02:52;;;;;;;49.67;37.70;;;;;;;15.98;100.00;101385.66;4991645;28;20048;-57
2023/05/22 07:05:17;;;;;;;45.75;35.47;;;;;;;16.03;100.00;101387.47;4991619;28;20038;-58
2023/05/22 07:07:43;;;;;;;46.72;36.78;;;;;;;16.04;100.00;101389.13;5007023;28;20042;-58
2023/05/22 07:10:09;;;;;;;46.92;37.50;;;;;;;15.87;100.00;101384.38;5011166;28;20056;-57
2023/05/22 07:12:34;;;;;;;48.58;36.85;;;;;;;15.82;100.00;101392.88;5009398;28;20037;-58
2023/05/22 07:15:00;;;;;;;47.03;36.42;;;;;;;15.95;100.00;101397.50;5010993;28;20037;-58
2023/05/22 07:17:25;;;;;;;47.97;36.30;;;;;;;16.03;100.00;101402.25;5010955;28;20097;-57
2023/05/22 07:19:51;;;;;;;46.75;35.47;;;;;;;16.01;100.00;101396.19;5011218;28;20028;-57
2023/05/22 07:22:16;;;;;;;45.22;35.33;;;;;;;16.08;100.00;101403.22;5010970;28;20050;-58
2023/05/22 07:24:42;;;;;;;46.33;36.30;;;;;;;16.15;100.00;101401.59;5010934;28;20066;-58
2023/05/22 07:27:08;;;;;;;47.97;35.97;;;;;;;16.15;100.00;101400.78;5010755;28;20084;-57
2023/05/22 07:29:33;;;;;;;49.80;37.53;;;;;;;16.22;100.00;101401.09;5010604;28;20056;-59
2023/05/22 07:31:59;;;;;;;47.10;37.40;;;;;;;16.31;100.00;101398.25;5010753;28;20065;-58
2023/05/22 07:34:30;;;;;;;44.92;35.45;;;;;;;16.42;100.00;101404.31;5009948;28;20053;-57
2023/05/22 07:36:56;;;;;;;42.20;34.85;;;;;;;16.68;100.00;101402.25;5009479;28;20120;-58
2023/05/22 07:39:21;;;;;;;41.90;33.25;;;;;;;16.95;100.00;101408.59;5011052;28;20034;-57
2023/05/22 07:41:48;;;;;;;41.17;32.83;;;;;;;17.15;100.00;101408.97;5010676;28;20037;-59
2023/05/22 07:44:14;;;;;;;44.25;32.50;;;;;;;17.31;100.00;101406.41;5010427;28;20037;-57
2023/05/22 07:46:39;;;;;;;40.58;32.42;;;;;;;17.49;100.00;101420.28;5010548;28;20041;-57
2023/05/22 07:49:05;;;;;;;42.67;32.40;;;;;;;17.67;100.00;101410.59;5010354;28;20030;-59
2023/05/22 07:51:30;;;;;;;41.97;32.17;;;;;;;17.77;99.00;101414.97;5010592;28;20026;-58
2023/05/22 07:53:56;;;;;;;44.10;33.50;;;;;;;17.87;98.49;101413.75;5010534;28;20468;-58
2023/05/22 07:56:21;;;;;;;42.80;33.05;;;;;;;18.06;97.85;101430.06;5009581;28;20402;-59
2023/05/22 07:58:47;;;;;;;40.15;32.17;;;;;;;18.13;96.07;101421.09;5009817;28;20037;-59
2023/05/22 08:01:14;;;;;;;41.72;32.75;;;;;;;18.06;95.59;101418.84;5010374;28;20029;-57
2023/05/22 08:03:39;;;;;;;43.67;32.75;;;;;;;18.09;96.37;101418.19;5010521;28;20045;-57
2023/05/22 08:06:05;;;;;;;41.65;32.08;;;;;;;18.20;97.25;101425.00;5010337;28;20026;-57
2023/05/22 08:08:31;;;;;;;43.53;33.30;;;;;;;18.36;95.69;101425.16;5010199;28;20030;-57
2023/05/22 08:10:57;;;;;;;41.40;32.75;;;;;;;18.58;94.31;101419.50;5008276;28;20034;-57
2023/05/22 08:13:22;;;;;;;42.75;33.25;;;;;;;18.68;93.81;101422.66;5010037;28;20037;-57
2023/05/22 08:15:47;;;;;;;42.33;33.65;;;;;;;18.66;93.28;101419.38;5010039;28;20172;-57
2023/05/22 08:18:13;;;;;;;40.92;32.60;;;;;;;18.62;92.96;101421.25;5010141;28;20030;-57
2023/05/22 08:20:38;;;;;;;42.85;33.15;;;;;;;18.57;94.20;101424.25;5010131;28;20034;-57
2023/05/22 08:23:04;;;;;;;44.60;35.08;;;;;;;18.55;93.65;101421.81;5009962;28;20114;-57
2023/05/22 08:25:29;;;;;;;43.20;33.00;;;;;;;18.71;93.52;101418.34;5010132;28;20045;-57
2023/05/22 08:27:54;;;;;;;42.80;33.45;;;;;;;18.84;93.47;101407.97;5009920;28;20057;-57
2023/05/22 08:30:19;;;;;;;43.33;34.50;;;;;;;18.86;92.84;101412.06;5009940;28;20030;-57
2023/05/22 08:32:45;;;;;;;42.33;32.85;;;;;;;18.82;92.98;101410.31;5009983;28;20465;-57
2023/05/22 08:35:10;;;;;;;42.38;33.67;;;;;;;18.56;93.91;101405.84;5008289;28;20053;-56
2023/05/22 08:37:35;;;;;;;40.10;33.03;;;;;;;18.66;94.10;101407.38;5009949;28;20494;-57
2023/05/22 08:40:01;;;;;;;42.67;34.25;;;;;;;18.79;93.75;101411.81;5009811;28;20487;-57
2023/05/22 08:42:26;;;;;;;42.42;34.38;;;;;;;18.92;93.14;101411.81;5009723;28;20026;-57
2023/05/22 08:44:54;;;;;;;44.55;34.42;;;;;;;18.95;92.18;101406.34;5011114;28;20084;-57
2023/05/22 08:47:22;;;;;;;41.60;33.88;;;;;;;18.90;92.35;101402.94;5013888;28;20026;-56
2023/05/22 08:49:50;;;;;;;42.25;33.33;;;;;;;18.94;92.96;101412.31;5013592;28;20445;-57
2023/05/22 08:52:27;;;;;;;44.35;35.35;;;;;;;19.09;92.90;101408.81;5013537;28;20033;-57
2023/05/22 08:54:54;;;;;;;42.45;33.58;;;;;;;19.33;91.69;101415.59;5013667;28;20529;-57
2023/05/22 08:57:20;;;;;;;41.13;35.08;;;;;;;19.31;90.27;101412.31;5013837;28;20546;-58
2023/05/22 08:59:47;;;;;;;42.67;33.65;;;;;;;19.68;90.15;101417.84;5013506;28;20038;-58
2023/05/22 09:02:13;;;;;;;43.40;34.97;;;;;;;19.69;88.98;101418.69;5013393;28;20113;-58
2023/05/22 09:04:41;;;;;;;42.20;34.63;;;;;;;19.81;87.98;101407.38;5013494;28;20122;-58
2023/05/22 09:07:07;;;;;;;41.80;34.08;;;;;;;20.04;87.03;101418.13;5013332;28;20028;-58
2023/05/22 09:09:37;;;;;;;42.05;34.60;;;;;;;19.60;88.22;101421.59;5013072;28;20018;-59
2023/05/22 09:12:05;;;;;;;40.95;33.08;;;;;;;19.56;88.90;101410.28;5011606;28;20033;-58
2023/05/22 09:14:38;;;;;;;40.00;33.17;;;;;;;19.62;88.88;101413.66;5013532;28;20060;-57
2023/05/22 09:17:04;;;;;;;41.77;34.97;;;;;;;19.49;88.97;101421.28;5013707;28;20417;-58
2023/05/22 09:19:29;;;;;;;39.97;33.95;;;;;;;19.58;89.72;101415.53;5013509;28;20040;-58
2023/05/22 09:22:02;;;;;;;42.88;36.13;;;;;;;19.69;89.85;101411.06;5013235;28;20029;-58
2023/05/22 09:24:27;;;;;;;40.43;33.57;;;;;;;19.68;88.61;101409.41;5014960;28;20037;-57
2023/05/22 09:26:52;;;;;;;43.40;34.95;;;;;;;19.86;88.25;101407.19;5014850;28;20030;-58
2023/05/22 09:29:18;;;;;;;41.70;34.22;;;;;;;19.92;88.32;101410.56;5014903;28;20030;-58
2023/05/22 09:31:43;;;;;;;42.45;35.95;;;;;;;19.86;88.61;101409.16;5014903;28;20033;-58
2023/05/22 09:34:09;;;;;;;41.58;34.58;;;;;;;19.90;88.73;101398.88;5014440;28;20046;-58
2023/05/22 09:36:35;;;;;;;43.20;33.60;;;;;;;20.10;86.86;101403.47;5014795;28;20025;-58
2023/05/22 09:39:03;;;;;;;39.38;33.05;;;;;;;20.37;85.98;101400.97;5014828;28;20446;-58
2023/05/22 09:41:32;;;;;;;39.42;33.13;;;;;;;20.56;85.62;101405.06;5014738;28;20424;-58
2023/05/22 09:43:58;;;;;;;41.67;34.78;;;;;;;20.72;85.00;101400.28;5014818;28;20029;-58
2023/05/22 09:46:23;;;;;;;44.80;33.88;;;;;;;20.86;83.81;101391.41;5014704;28;20343;-58
2023/05/22 09:48:52;;;;;;;42.08;33.90;;;;;;;20.91;84.66;101398.75;5014647;28;20032;-59
2023/05/22 09:51:22;;;;;;;40.30;32.40;;;;;;;20.79;81.74;101393.22;5014730;28;20045;-58
2023/05/22 09:53:48;;;;;;;39.40;32.75;;;;;;;20.77;82.55;101389.97;5014745;28;20034;-58
2023/05/22 09:56:15;;;;;;;41.50;33.28;;;;;;;20.99;83.35;101383.69;5014022;28;20033;-58
2023/05/22 09:58:42;;;;;;;41.97;33.10;;;;;;;21.14;82.72;101387.66;5014361;28;20032;-59
2023/05/22 10:01:10;;;;;;;40.78;34.20;;;;;;;21.00;83.41;101388.13;5014498;28;20072;-58
2023/05/22 10:03:39;;;;;;;42.45;34.53;;;;;;;21.01;83.78;101386.16;5005884;28;20167;-58
2023/05/22 10:06:05;;;;;;;39.83;31.77;;;;;;;21.21;82.85;101389.03;4994859;28;20057;-59
2023/05/22 10:08:37;;;;;;;38.83;30.58;;;;;;;21.13;80.80;101390.84;4995048;28;20066;-58
2023/05/22 10:11:05;;;;;;;38.20;30.73;;;;;;;20.94;80.73;101391.56;4994962;28;20379;-58
2023/05/22 10:13:31;;;;;;;37.40;31.95;;;;;;;20.93;81.60;101385.16;4994715;28;20031;-58
2023/05/22 10:15:58;;;;;;;39.10;31.58;;;;;;;21.08;81.85;101388.28;4993321;28;20074;-59
2023/05/22 10:18:25;;;;;;;37.30;31.27;;;;;;;21.30;80.70;101389.63;4994460;28;20022;-59
2023/05/22 10:20:50;;;;;;;37.95;31.33;;;;;;;21.31;79.34;101386.44;4994530;28;20026;-59
2023/05/22 10:23:16;;;;;;;38.28;32.33;;;;;;;21.19;79.97;101386.56;4994459;28;20113;-59
2023/05/22 10:25:42;;;;;;;38.58;32.10;;;;;;;21.30;80.46;101393.25;4999705;28;20446;-59
2023/05/22 10:28:09;;;;;;;40.83;33.13;;;;;;;21.37;79.47;101380.50;5003410;28;20434;-59
2023/05/22 10:30:46;;;;;;;40.08;31.55;;;;;;;21.54;78.97;101374.47;5004704;28;20030;-58
2023/05/22 10:33:30;;;;;;;41.15;33.63;;;;;;;21.53;78.21;101391.72;5004620;28;20058;-60
2023/05/22 10:36:06;;;;;;;36.90;31.27;;;;;;;21.38;78.15;101382.16;5005109;28;20046;-58
2023/05/22 10:39:09;;;;;;;38.85;31.73;;;;;;;21.72;78.30;101385.34;5013645;28;20061;-58
2023/05/22 10:41:34;;;;;;;37.30;29.92;;;;;;;21.65;76.29;101371.91;5013621;28;20570;-57
2023/05/22 10:44:01;;;;;;;40.33;32.22;;;;;;;21.67;78.44;101378.00;5012990;28;20121;-57
2023/05/22 10:46:31;;;;;;;44.10;35.10;;;;;;;21.79;77.88;101374.22;5013368;28;20034;-59
2023/05/22 10:48:57;;;;;;;42.47;32.53;;;;;;;21.91;76.17;101376.06;5012905;28;20030;-60
2023/05/22 10:51:23;;;;;;;40.00;31.33;;;;;;;21.97;75.57;101374.56;5013784;28;20030;-58
2023/05/22 10:53:59;;;;;;;37.60;31.70;;;;;;;21.97;74.76;101381.03;5012738;28;20026;-57
2023/05/22 10:56:32;;;;;;;38.03;32.80;;;;;;;21.90;75.04;101378.06;5013087;28;20038;-59
2023/05/22 10:59:09;;;;;;;40.08;32.58;;;;;;;22.01;76.09;101371.84;5013014;28;20105;-59
2023/05/22 11:01:36;;;;;;;39.25;33.58;;;;;;;22.02;75.21;101365.00;5013136;28;20025;-60
2023/05/22 11:04:07;;;;;;;40.67;33.25;;;;;;;22.16;74.83;101370.09;5012698;28;20161;-58